Time;durP1;ratioP1;P1;durP2;ratioP2;P2;SDS_P1;SDS_P2;PMS_P1;PMS_P2;Temp;Humidity;BMP_temperature;BMP_pressure;BME280_temperature;BME280_humidity;BME280_pressure;Samples;Min_cycle;Max_cycle;Signal;HPM_P1;HPM_P2
2021/08/13 00:01:22;;;;;;;6.43;5.80;;;;;;;27.26;38.34;94965.82;828281;71;29701;-75
2021/08/13 00:16:26;;;;;;;6.90;5.40;;;;;;;;;;827495;71;32693;-78
2021/08/13 00:31:28;;;;;;;5.33;4.80;;;;;;;;;;833913;71;32639;-76
2021/08/13 00:46:16;;;;;;;5.63;5.13;;;;;;;27.08;37.78;94955.75;828056;71;30583;-73
2021/08/13 01:01:13;;;;;;;5.30;4.80;;;;;;;27.02;37.48;166042.31;834061;71;29640;-76
2021/08/13 01:16:13;;;;;;;5.00;4.67;;;;;;;26.85;37.74;165750.72;828372;71;29880;-75
2021/08/13 01:31:20;;;;;;;5.03;4.63;;;;;;;26.05;36.65;94970.33;828227;71;30314;-78
2021/08/13 01:46:23;;;;;;;5.63;5.03;;;;;;;25.15;37.81;94970.17;821209;71;30874;-78
2021/08/13 02:01:27;;;;;;;5.13;4.70;;;;;;;24.69;38.66;94966.44;827569;71;33195;-76
2021/08/13 02:16:20;;;;;;;5.37;4.87;;;;;;;24.37;39.12;94959.54;834080;71;29504;-78
2021/08/13 02:31:31;;;;;;;4.90;4.53;;;;;;;24.10;39.98;94966.08;829264;71;29885;-78
2021/08/13 02:46:17;;;;;;;4.90;4.40;;;;;;;23.87;40.40;94970.94;834889;71;30596;-76
2021/08/13 03:16:15;;;;;;;4.77;4.37;;;;;;;25.28;42.40;94990.84;827475;71;33523;-76
2021/08/13 03:31:09;;;;;;;4.93;4.53;;;;;;;25.97;39.55;94983.54;828336;71;31551;-77
2021/08/13 03:46:14;;;;;;;6.47;5.83;;;;;;;26.00;39.88;94999.52;827634;71;32742;-78
2021/08/13 04:01:14;;;;;;;10.67;6.40;;;;;;;26.40;40.13;94998.60;835807;71;32735;-77
2021/08/13 04:16:08;;;;;;;7.60;6.83;;;;;;;26.33;40.79;95008.73;828277;71;30270;-76
2021/08/13 04:31:58;;;;;;;7.27;6.67;;;;;;;26.93;40.04;95012.88;833786;71;32734;-77
2021/08/13 04:46:23;;;;;;;16.30;14.80;;;;;;;27.12;40.72;95031.20;833854;71;32726;-79
2021/08/13 05:01:15;;;;;;;38.90;35.00;;;;;;;26.26;42.52;95021.40;827525;71;32819;-77
2021/08/13 05:16:09;;;;;;;10.33;9.23;;;;;;;26.63;41.04;95013.73;828130;71;30052;-79
2021/08/13 05:31:07;;;;;;;7.37;6.67;;;;;;;;;;834010;71;29707;-76
2021/08/13 05:46:11;;;;;;;7.77;7.07;;;;;;;28.30;38.07;95024.53;829654;71;29292;-78
2021/08/13 06:01:09;;;;;;;7.70;6.90;;;;;;;29.00;36.73;95043.45;828488;71;29597;-79
2021/08/13 06:16:22;;;;;;;6.77;6.27;;;;;;;29.64;35.34;95044.44;828506;71;29582;-78
2021/08/13 06:31:27;;;;;;;6.13;5.63;;;;;;;30.26;33.72;95053.63;833673;71;32670;-79
2021/08/13 06:46:21;;;;;;;5.30;4.80;;;;;;;30.82;32.16;95044.55;829682;71;32123;-76
2021/08/13 07:01:20;;;;;;;5.20;4.80;;;;;;;31.20;31.01;95060.77;828082;71;31663;-78
2021/08/13 07:16:16;;;;;;;5.40;4.90;;;;;;;31.64;31.13;95067.17;833889;71;30324;-77
2021/08/13 07:17:21;;;;;;;5.60;5.10;;;;;;;31.58;30.97;95061.43;818776;72;26927;-79
2021/08/13 07:31:18;;;;;;;6.03;5.00;;;;;;;31.96;30.48;95061.25;827796;71;33169;-76
2021/08/13 08:01:48;;;;;;;5.63;5.23;;;;;;;32.90;28.44;95052.98;805226;71;33324;-77
2021/08/13 08:16:20;;;;;;;6.03;5.50;;;;;;;33.18;27.88;95065.87;828063;71;29831;-75
2021/08/13 08:31:22;;;;;;;5.40;5.00;;;;;;;33.31;27.34;95069.48;833782;71;31639;-78
2021/08/13 08:46:21;;;;;;;5.50;5.10;;;;;;;32.89;27.60;95062.34;833663;71;30404;-77
2021/08/13 09:16:20;;;;;;;7.50;6.90;;;;;;;33.14;27.66;95057.02;827214;71;33137;-77
2021/08/13 09:31:19;;;;;;;6.33;5.83;;;;;;;33.84;26.60;95053.16;827624;71;31739;-76
2021/08/13 09:46:35;;;;;;;6.60;6.10;;;;;;;33.78;27.21;95048.05;833582;71;32749;-77
2021/08/13 10:16:26;;;;;;;6.60;6.10;;;;;;;34.95;25.77;95046.81;829549;71;31946;-77
2021/08/13 10:31:19;;;;;;;7.47;6.87;;;;;;;35.05;25.66;95045.73;828249;71;29386;-76
2021/08/13 10:46:23;;;;;;;7.63;7.03;;;;;;;34.20;26.35;95043.36;827612;71;33067;-75
2021/08/13 11:01:22;;;;;;;7.87;7.17;;;;;;;34.17;26.48;95027.88;827543;71;32691;-78
2021/08/13 11:16:33;;;;;;;7.77;7.23;;;;;;;34.04;26.33;95023.68;828167;71;32540;-75
2021/08/13 11:31:51;;;;;;;7.47;6.87;;;;;;;33.88;26.75;95004.81;827372;71;33162;-75
2021/08/13 11:46:30;;;;;;;8.13;7.50;;;;;;;34.14;26.63;94989.98;833758;71;32727;-75
2021/08/13 12:01:54;;;;;;;7.80;7.20;;;;;;;34.00;26.54;94991.68;827486;71;32991;-76
2021/08/13 12:16:18;;;;;;;7.40;6.80;;;;;;;34.27;26.77;94972.34;833946;71;29344;-77
2021/08/13 12:31:15;;;;;;;7.80;7.10;;;;;;;33.90;25.69;94958.07;827993;71;29620;-77
2021/08/13 12:46:29;;;;;;;8.80;8.10;;;;;;;33.21;28.38;94946.67;827995;71;32747;-77
2021/08/13 13:01:28;;;;;;;9.27;8.50;;;;;;;33.27;28.86;94942.28;833682;71;32700;-78
2021/08/13 13:16:32;;;;;;;8.93;8.23;;;;;;;31.82;32.09;94944.16;835108;71;32923;-79
2021/08/13 13:31:24;;;;;;;9.60;8.87;;;;;;;32.20;31.60;94936.31;834666;71;30764;-79
2021/08/13 13:46:28;;;;;;;10.13;9.13;;;;;;;31.52;32.29;94946.41;827516;71;32729;-81
2021/08/13 14:01:21;;;;;;;9.50;8.70;;;;;;;30.34;34.49;94930.55;829075;71;30244;-77
2021/08/13 14:16:20;;;;;;;10.27;9.37;;;;;;;30.38;34.21;94935.17;834652;71;29690;-78
2021/08/13 14:17:24;;;;;;;9.83;9.03;;;;;;;30.32;34.18;94928.83;822075;72;26978;-81
2021/08/13 14:31:29;;;;;;;10.50;9.50;;;;;;;30.35;34.41;94936.16;828100;71;32690;-78
2021/08/13 14:46:50;;;;;;;10.03;9.23;;;;;;;29.81;35.80;94950.05;833938;71;32759;-76
2021/08/13 15:16:18;;;;;;;11.40;10.50;;;;;;;29.13;37.08;94959.42;834841;71;32793;-77
2021/08/13 15:31:09;;;;;;;10.47;9.40;;;;;;;28.84;37.13;94929.84;828801;71;30353;-76
2021/08/13 15:46:08;;;;;;;10.73;9.83;;;;;;;28.63;37.76;94964.50;828922;71;29285;-76
2021/08/13 16:01:18;;;;;;;11.80;10.60;;;;;;;28.48;38.76;94952.94;827634;71;32762;-78
2021/08/13 16:16:13;;;;;;;11.27;10.37;;;;;;;28.22;39.26;94968.27;828280;71;29682;-76
2021/08/13 16:31:12;;;;;;;10.97;10.10;;;;;;;28.06;39.85;94968.13;828408;71;32031;-75
2021/08/13 16:46:10;;;;;;;10.07;9.17;;;;;;;27.85;39.74;94976.22;833890;71;29292;-74
2021/08/13 17:01:08;;;;;;;10.03;9.10;;;;;;;;;;828406;71;29816;-75
2021/08/13 17:16:07;;;;;;;11.00;10.10;;;;;;;;;;828210;71;29654;-75
2021/08/13 17:31:13;;;;;;;11.17;9.07;;;;;;;;;;827390;71;33258;-76
2021/08/13 17:46:14;;;;;;;47.77;42.37;;;;;;;26.92;44.72;95018.05;827559;71;33161;-76
2021/08/13 18:01:08;;;;;;;11.40;10.40;;;;;;;26.84;45.39;95033.23;834149;71;29363;-77
2021/08/13 18:16:09;;;;;;;11.53;10.57;;;;;;;26.77;46.66;95064.37;828634;71;30284;-76
2021/08/13 18:31:15;;;;;;;12.27;11.17;;;;;;;26.59;47.36;95055.44;820992;71;32846;-76
2021/08/13 18:46:36;;;;;;;12.13;10.97;;;;;;;26.42;48.18;95080.29;829008;71;33358;-78
2021/08/13 19:01:21;;;;;;;11.63;10.63;;;;;;;26.52;48.08;95085.76;829197;71;30567;-76
2021/08/13 19:16:21;;;;;;;11.87;10.77;;;;;;;26.53;49.13;95089.98;828097;71;32125;-76
2021/08/13 19:17:25;;;;;;;13.00;11.80;;;;;;;26.53;49.13;95089.98;808496;72;26977;-74
2021/08/13 19:31:15;;;;;;;12.10;11.00;;;;;;;26.83;47.95;95090.37;828731;70;29281;-76
2021/08/13 19:46:32;;;;;;;12.37;11.30;;;;;;;26.82;48.27;95080.73;828169;71;32612;-79
2021/08/13 20:01:11;;;;;;;12.07;11.07;;;;;;;26.73;48.52;95064.92;828199;71;29405;-76
2021/08/13 20:16:30;;;;;;;12.80;11.67;;;;;;;27.09;48.03;95071.81;833860;71;32843;-76
2021/08/13 20:31:21;;;;;;;12.37;11.20;;;;;;;;;;827299;71;29255;-76
2021/08/13 20:46:25;;;;;;;11.47;10.47;;;;;;;27.02;47.08;95013.26;833910;71;32754;-76
2021/08/13 21:16:12;;;;;;;11.03;10.03;;;;;;;27.00;46.90;95084.09;828221;71;31862;-76
2021/08/13 21:31:09;;;;;;;11.30;10.30;;;;;;;26.50;48.04;95065.17;828369;71;29573;-75
2021/08/13 21:46:14;;;;;;;12.27;11.13;;;;;;;26.39;48.79;95072.40;827381;71;33176;-76
2021/08/13 22:01:09;;;;;;;11.00;10.03;;;;;;;26.61;48.25;95069.29;828546;71;29976;-77
2021/08/13 22:16:08;;;;;;;10.60;9.70;;;;;;;25.74;49.46;95063.83;833797;71;28484;-76
2021/08/13 22:31:08;;;;;;;10.53;9.57;;;;;;;25.55;49.78;95048.69;828263;71;28896;-76
2021/08/13 22:46:18;;;;;;;10.67;9.87;;;;;;;24.18;53.34;95035.52;827533;71;31836;-74
2021/08/13 23:01:14;;;;;;;12.40;11.30;;;;;;;23.51;55.93;95025.84;834020;71;31766;-74
2021/08/13 23:16:15;;;;;;;12.57;11.53;;;;;;;23.31;57.01;95035.27;834229;71;30987;-75
2021/08/13 23:31:29;;;;;;;11.80;10.80;;;;;;;24.76;53.40;95026.35;822906;71;32423;-76
